Time;durP1;ratioP1;P1;durP2;ratioP2;P2;SDS_P1;SDS_P2;PMS_P1;PMS_P2;Temp;Humidity;BMP_temperature;BMP_pressure;BME280_temperature;BME280_humidity;BME280_pressure;Samples;Min_cycle;Max_cycle;Signal;HPM_P1;HPM_P2
2023/04/25 00:02:36;;;;;;;17.30;6.03;;;;;;;5.12;100.00;100852.50;5104188;28;20442;-78
2023/04/25 00:08:24;;;;;;;12.70;4.13;;;;;;;5.04;100.00;100863.19;5103478;28;20047;-78
2023/04/25 00:14:11;;;;;;;11.05;4.20;;;;;;;4.71;100.00;100849.34;5103194;28;20099;-80
2023/04/25 00:19:59;;;;;;;20.00;4.50;;;;;;;4.67;100.00;100874.53;5105202;28;20128;-79
2023/04/25 00:22:25;;;;;;;16.80;4.68;;;;;;;4.62;100.00;100877.69;5107856;28;20028;-79
2023/04/25 00:24:50;;;;;;;17.20;5.22;;;;;;;4.64;100.00;100880.19;5083456;28;20060;-79
2023/04/25 00:30:38;;;;;;;15.65;4.63;;;;;;;4.68;100.00;100875.34;5090505;28;20479;-78
2023/04/25 00:33:03;;;;;;;13.35;4.70;;;;;;;4.63;100.00;100876.72;5094466;28;20418;-78
2023/04/25 00:38:50;;;;;;;19.30;5.07;;;;;;;4.48;100.00;100861.72;5095630;28;20430;-80
2023/04/25 00:44:38;;;;;;;13.38;4.93;;;;;;;4.41;100.00;100861.59;5105965;28;20132;-81
2023/04/25 00:47:04;;;;;;;16.77;5.10;;;;;;;4.49;100.00;100874.78;5108621;28;20020;-80
2023/04/25 00:49:29;;;;;;;15.05;4.22;;;;;;;4.35;100.00;100863.13;5104159;28;20077;-80
2023/04/25 00:55:16;;;;;;;16.30;4.40;;;;;;;4.29;100.00;100869.09;5106776;28;20066;-80
2023/04/25 00:57:42;;;;;;;12.75;4.15;;;;;;;4.30;100.00;100880.50;5105560;28;20020;-80
2023/04/25 01:00:14;;;;;;;16.95;4.43;;;;;;;4.32;100.00;100878.50;5083859;28;20024;-80
2023/04/25 01:02:40;;;;;;;11.93;5.07;;;;;;;4.28;100.00;100880.66;5079957;28;20040;-80
2023/04/25 01:05:06;;;;;;;11.82;4.32;;;;;;;4.19;100.00;100865.00;5104827;28;20484;-80
2023/04/25 01:07:31;;;;;;;15.38;4.85;;;;;;;4.23;100.00;100875.06;5080630;28;20055;-80
2023/04/25 01:09:56;;;;;;;17.08;5.18;;;;;;;4.20;100.00;100874.59;5107573;28;20064;-80
2023/04/25 01:12:22;;;;;;;14.07;5.72;;;;;;;4.07;100.00;100858.44;5105890;28;20114;-80
2023/04/25 01:14:48;;;;;;;12.48;4.85;;;;;;;4.04;100.00;100860.41;5099658;28;20056;-80
2023/04/25 01:17:14;;;;;;;17.98;5.07;;;;;;;4.05;100.00;100863.91;5105125;28;20142;-80
2023/04/25 01:19:40;;;;;;;17.23;5.20;;;;;;;4.03;100.00;100864.06;5107197;28;20039;-79
2023/04/25 01:22:05;;;;;;;12.93;4.90;;;;;;;4.07;100.00;100877.78;5099132;28;20044;-80
2023/04/25 01:24:33;;;;;;;14.85;4.75;;;;;;;4.12;100.00;100882.56;5104133;28;20538;-80
2023/04/25 01:27:01;;;;;;;21.60;5.97;;;;;;;4.26;100.00;100887.13;5097799;28;20040;-80
2023/04/25 01:29:27;;;;;;;18.95;5.40;;;;;;;4.30;100.00;100868.09;5102647;28;20099;-80
2023/04/25 01:31:53;;;;;;;14.00;4.60;;;;;;;4.44;100.00;100893.03;5104046;28;20027;-80
2023/04/25 01:34:19;;;;;;;25.05;5.22;;;;;;;4.50;100.00;100886.19;5099604;28;20075;-80
2023/04/25 01:36:44;;;;;;;18.17;5.63;;;;;;;4.46;100.00;100875.13;5087873;28;20031;-80
2023/04/25 01:39:10;;;;;;;19.33;5.18;;;;;;;4.56;100.00;100891.63;5106991;28;20028;-80
2023/04/25 01:41:36;;;;;;;35.40;10.45;;;;;;;4.57;100.00;100885.31;5102746;28;20036;-80
2023/04/25 01:44:02;;;;;;;22.55;8.02;;;;;;;4.61;100.00;100896.38;5088316;28;20451;-80
2023/04/25 01:46:28;;;;;;;28.52;7.97;;;;;;;4.59;100.00;100882.50;5100022;28;20032;-81
2023/04/25 01:48:53;;;;;;;19.08;6.53;;;;;;;4.60;100.00;100882.31;5070389;28;20032;-80
2023/04/25 01:51:19;;;;;;;16.77;5.70;;;;;;;4.64;100.00;100894.25;5107147;28;20028;-80
2023/04/25 01:53:44;;;;;;;17.92;5.32;;;;;;;4.62;100.00;100885.63;5101703;28;20044;-80
2023/04/25 01:56:10;;;;;;;17.67;6.60;;;;;;;4.66;100.00;100886.94;5108172;28;20053;-80
2023/04/25 01:58:35;;;;;;;11.75;4.88;;;;;;;4.68;100.00;100894.72;5090192;28;20074;-80
2023/04/25 02:01:00;;;;;;;17.63;6.30;;;;;;;4.62;100.00;100895.38;5103682;28;20043;-80
2023/04/25 02:03:26;;;;;;;19.83;5.78;;;;;;;4.55;100.00;100895.25;5107154;28;20087;-80
2023/04/25 02:05:51;;;;;;;14.82;5.32;;;;;;;4.44;100.00;100892.19;5087739;28;20028;-80
2023/04/25 02:08:17;;;;;;;17.52;4.85;;;;;;;4.43;100.00;100903.78;5104898;28;20113;-80
2023/04/25 02:10:43;;;;;;;16.85;4.90;;;;;;;4.41;100.00;100911.06;5089751;28;20036;-80
2023/04/25 02:13:08;;;;;;;19.23;6.47;;;;;;;4.34;100.00;100911.78;5101349;28;20100;-80
2023/04/25 02:15:34;;;;;;;21.00;6.55;;;;;;;4.22;100.00;100904.34;5106453;28;20035;-80
2023/04/25 02:21:21;;;;;;;15.80;5.18;;;;;;;4.13;100.00;100918.63;5105529;28;20452;-80
2023/04/25 02:23:48;;;;;;;19.27;5.68;;;;;;;4.08;100.00;100913.00;5087659;28;20028;-80
2023/04/25 02:26:13;;;;;;;19.48;5.65;;;;;;;4.02;100.00;100910.03;5084101;28;20036;-81
2023/04/25 02:28:39;;;;;;;23.00;6.38;;;;;;;3.99;100.00;100904.25;5087681;28;20100;-80
2023/04/25 02:31:04;;;;;;;18.98;5.75;;;;;;;3.93;100.00;100903.13;5106850;28;20043;-80
2023/04/25 02:36:51;;;;;;;15.18;5.07;;;;;;;3.82;100.00;100916.72;5107028;28;20050;-80
2023/04/25 02:39:17;;;;;;;19.67;5.57;;;;;;;3.80;100.00;100916.06;5101105;28;20036;-80
2023/04/25 02:41:42;;;;;;;18.83;5.80;;;;;;;3.72;100.00;100919.50;5104462;28;20032;-80
2023/04/25 02:44:07;;;;;;;20.80;6.18;;;;;;;3.65;100.00;100909.78;5106356;28;20028;-80
2023/04/25 02:46:33;;;;;;;17.95;5.80;;;;;;;3.64;100.00;100911.59;5082800;28;20036;-80
2023/04/25 02:48:58;;;;;;;18.05;6.68;;;;;;;3.56;100.00;100913.44;5087782;28;20035;-80
2023/04/25 02:54:45;;;;;;;18.27;6.00;;;;;;;3.49;100.00;100909.81;5106381;28;20114;-80
2023/04/25 02:57:10;;;;;;;21.33;6.65;;;;;;;3.47;100.00;100914.41;5105182;28;20043;-80
2023/04/25 02:59:36;;;;;;;20.60;5.38;;;;;;;3.47;100.00;100922.34;5101647;28;20069;-80
2023/04/25 03:02:02;;;;;;;16.02;5.38;;;;;;;3.42;100.00;100921.03;5105702;28;20028;-80
2023/04/25 03:04:27;;;;;;;16.67;6.00;;;;;;;3.37;100.00;100927.81;5084112;28;20104;-80
2023/04/25 03:06:53;;;;;;;22.50;6.72;;;;;;;3.32;100.00;100919.53;5105505;28;20040;-80
2023/04/25 03:09:19;;;;;;;17.50;6.38;;;;;;;3.22;100.00;100919.72;5086717;28;20035;-80
2023/04/25 03:11:45;;;;;;;18.55;6.75;;;;;;;3.24;100.00;100920.38;5083011;28;20048;-80
2023/04/25 03:14:10;;;;;;;17.85;5.43;;;;;;;3.15;100.00;100909.94;5089412;28;20047;-80
2023/04/25 03:16:36;;;;;;;20.45;6.20;;;;;;;3.16;100.00;100916.88;5089553;28;20036;-80
2023/04/25 03:19:02;;;;;;;18.52;6.00;;;;;;;3.12;100.00;100913.75;5101627;28;20079;-80
2023/04/25 03:21:27;;;;;;;16.85;6.65;;;;;;;3.09;100.00;100909.63;5087321;28;20341;-80
2023/04/25 03:23:52;;;;;;;18.30;5.82;;;;;;;3.16;100.00;100925.63;5099653;28;20108;-80
2023/04/25 03:26:18;;;;;;;19.05;7.15;;;;;;;3.27;100.00;100924.50;5104900;28;20035;-80
2023/04/25 03:28:43;;;;;;;18.63;6.00;;;;;;;3.28;100.00;100926.16;5086792;28;20062;-80
2023/04/25 03:31:08;;;;;;;20.15;6.70;;;;;;;3.36;100.00;100926.97;5082536;28;20047;-80
2023/04/25 03:36:55;;;;;;;16.10;5.95;;;;;;;3.45;100.00;100921.69;5098338;28;20052;-80
2023/04/25 03:39:21;;;;;;;21.17;6.28;;;;;;;3.51;100.00;100932.44;5104803;28;20028;-80
2023/04/25 03:41:46;;;;;;;19.45;6.50;;;;;;;3.52;100.00;100920.88;5105893;28;20040;-80
2023/04/25 03:44:11;;;;;;;17.67;6.22;;;;;;;3.54;100.00;100920.72;5082482;28;20190;-80
2023/04/25 03:50:00;;;;;;;19.52;7.03;;;;;;;3.64;100.00;100919.53;5101419;28;20396;-80
2023/04/25 03:52:25;;;;;;;19.88;6.43;;;;;;;3.62;100.00;100918.88;5104599;28;20063;-80
2023/04/25 03:54:50;;;;;;;16.80;6.55;;;;;;;3.65;100.00;100912.44;5105360;28;20028;-80
2023/04/25 03:57:16;;;;;;;24.48;6.68;;;;;;;3.72;100.00;100923.97;5083090;28;20069;-80
2023/04/25 03:59:41;;;;;;;22.15;6.57;;;;;;;3.79;100.00;100929.44;5105826;28;20047;-80
2023/04/25 04:02:06;;;;;;;16.60;6.28;;;;;;;3.73;100.00;100923.81;5088594;28;20091;-79
2023/04/25 04:04:32;;;;;;;14.48;5.80;;;;;;;3.70;100.00;100920.69;5083545;28;20036;-80
2023/04/25 04:10:19;;;;;;;15.77;6.50;;;;;;;3.81;100.00;100948.63;5103994;28;20039;-80
2023/04/25 04:12:44;;;;;;;16.50;5.65;;;;;;;3.79;100.00;100956.72;5108710;28;20091;-80
2023/04/25 04:15:10;;;;;;;25.83;9.10;;;;;;;3.77;100.00;100945.47;5108045;28;20056;-80
2023/04/25 04:17:35;;;;;;;18.77;6.68;;;;;;;3.84;100.00;100957.03;5086938;28;20040;-80
2023/04/25 04:20:01;;;;;;;22.48;6.45;;;;;;;3.84;100.00;100951.75;5090402;28;20032;-80
2023/04/25 04:22:26;;;;;;;19.20;6.18;;;;;;;3.91;100.00;100962.47;5087349;28;20070;-80
2023/04/25 04:28:13;;;;;;;19.85;5.97;;;;;;;3.91;100.00;100960.66;5106845;28;20047;-80
2023/04/25 04:30:39;;;;;;;18.75;5.90;;;;;;;3.96;100.00;100957.50;5087726;28;20016;-79
2023/04/25 04:36:26;;;;;;;19.65;5.43;;;;;;;4.04;100.00;100968.06;5104094;28;20587;-81
2023/04/25 04:38:52;;;;;;;14.00;6.30;;;;;;;3.95;100.00;100956.69;5088159;28;20020;-80
2023/04/25 04:41:19;;;;;;;26.67;6.55;;;;;;;4.03;100.00;100969.88;5085870;28;20078;-80
2023/04/25 04:43:44;;;;;;;19.50;5.68;;;;;;;4.00;100.00;100972.03;5089407;28;20032;-80
2023/04/25 04:46:10;;;;;;;17.95;6.28;;;;;;;3.93;100.00;100966.59;5107565;28;20055;-80
2023/04/25 04:48:35;;;;;;;17.98;5.10;;;;;;;3.96;100.00;100968.09;5103297;28;20473;-80
2023/04/25 04:51:01;;;;;;;19.83;6.20;;;;;;;4.09;100.00;100972.88;5108324;28;20054;-80
2023/04/25 04:53:27;;;;;;;25.58;5.78;;;;;;;4.17;100.00;100980.78;5090244;28;20036;-80
2023/04/25 04:59:14;;;;;;;14.20;5.65;;;;;;;4.59;100.00;100978.66;5108036;28;20061;-79
2023/04/25 05:01:39;;;;;;;21.92;6.28;;;;;;;4.74;100.00;100980.59;5082716;28;20104;-80
2023/04/25 05:04:05;;;;;;;13.40;5.13;;;;;;;4.80;100.00;100975.44;5086385;28;20024;-80
2023/04/25 05:06:31;;;;;;;22.15;6.38;;;;;;;4.80;100.00;100990.50;5104332;28;20039;-80
2023/04/25 05:08:56;;;;;;;21.80;6.85;;;;;;;4.76;100.00;100991.84;5085398;28;20079;-80
2023/04/25 05:11:23;;;;;;;19.77;5.38;;;;;;;4.76;100.00;100992.66;5107195;28;20047;-80
2023/04/25 05:13:51;;;;;;;19.13;6.47;;;;;;;4.81;100.00;101006.22;5085445;28;20044;-79
2023/04/25 05:16:16;;;;;;;14.00;5.25;;;;;;;4.89;100.00;101013.28;5106630;28;20095;-80
2023/04/25 05:18:41;;;;;;;16.07;5.60;;;;;;;4.91;100.00;101011.28;5105673;28;20031;-80
2023/04/25 05:21:07;;;;;;;15.82;5.57;;;;;;;4.91;100.00;101013.94;5101062;28;20949;-81
2023/04/25 05:23:32;;;;;;;19.80;5.80;;;;;;;4.88;100.00;101015.13;5104580;28;20024;-80
2023/04/25 05:25:58;;;;;;;25.50;5.70;;;;;;;4.90;100.00;101022.91;5086679;28;20040;-80
2023/04/25 05:28:23;;;;;;;15.88;6.32;;;;;;;4.92;100.00;101019.09;5104123;28;20040;-80
2023/04/25 05:30:49;;;;;;;18.38;5.72;;;;;;;4.99;100.00;101024.53;5107576;28;20065;-80
2023/04/25 05:33:15;;;;;;;20.27;5.82;;;;;;;5.10;100.00;101040.03;5085664;28;20381;-80
2023/04/25 05:35:40;;;;;;;17.63;6.38;;;;;;;5.17;100.00;101029.56;5090780;28;20032;-80
2023/04/25 05:38:06;;;;;;;18.48;5.68;;;;;;;5.28;100.00;101026.53;5089125;28;20025;-81
2023/04/25 05:40:31;;;;;;;18.50;5.68;;;;;;;5.47;100.00;101030.53;5102262;28;20064;-81
2023/04/25 05:42:57;;;;;;;17.80;5.50;;;;;;;5.59;100.00;101029.97;5091174;28;20104;-81
2023/04/25 05:45:22;;;;;;;16.48;5.22;;;;;;;5.76;100.00;101030.66;5090414;28;20096;-80
2023/04/25 05:47:47;;;;;;;16.58;4.60;;;;;;;5.96;100.00;101036.34;5102376;28;20044;-80
2023/04/25 05:50:12;;;;;;;16.50;5.28;;;;;;;6.10;100.00;101045.34;5108996;28;20441;-80
2023/04/25 05:52:38;;;;;;;10.68;4.60;;;;;;;6.24;100.00;101041.06;5112752;28;20097;-81
2023/04/25 05:58:26;;;;;;;12.27;4.68;;;;;;;6.36;100.00;101056.38;5106884;28;20044;-80
2023/04/25 06:00:51;;;;;;;16.60;5.40;;;;;;;6.35;100.00;101061.84;5065023;28;20037;-80
2023/04/25 06:03:16;;;;;;;12.93;5.03;;;;;;;6.37;100.00;101071.31;5088842;28;20036;-80
2023/04/25 06:05:42;;;;;;;12.55;4.95;;;;;;;6.36;100.00;101068.81;5086225;28;20058;-80
2023/04/25 06:08:08;;;;;;;13.70;5.35;;;;;;;6.39;100.00;101068.47;5109377;28;20024;-80
2023/04/25 06:10:33;;;;;;;11.90;4.90;;;;;;;6.51;100.00;101070.50;5109663;28;20085;-80
2023/04/25 06:12:59;;;;;;;16.42;4.78;;;;;;;6.63;100.00;101078.00;5104569;28;20040;-80
2023/04/25 06:18:46;;;;;;;8.75;3.50;;;;;;;6.28;100.00;101076.88;5104554;28;20085;-80
2023/04/25 06:21:12;;;;;;;15.83;4.20;;;;;;;6.67;100.00;101074.84;5086915;28;20052;-80
2023/04/25 06:23:37;;;;;;;17.92;5.80;;;;;;;8.03;100.00;101088.28;5108845;28;20278;-80
2023/04/25 06:26:03;;;;;;;15.70;4.35;;;;;;;9.11;100.00;101078.16;5103676;28;20061;-80
2023/04/25 06:28:28;;;;;;;16.50;4.28;;;;;;;10.07;100.00;101084.16;5090818;28;20024;-81
2023/04/25 06:34:15;;;;;;;7.90;2.95;;;;;;;11.42;99.81;101080.81;5107846;28;20051;-81
2023/04/25 06:36:41;;;;;;;15.48;3.55;;;;;;;11.94;92.85;101082.41;5107840;28;20080;-81
2023/04/25 06:39:06;;;;;;;9.10;3.30;;;;;;;12.32;96.83;101090.34;5098891;28;20071;-80
2023/04/25 06:41:32;;;;;;;10.23;3.42;;;;;;;12.81;87.68;101091.34;5087723;28;20035;-81
2023/04/25 06:43:57;;;;;;;11.63;3.83;;;;;;;13.05;84.47;101097.69;5082394;28;20040;-81
2023/04/25 06:46:22;;;;;;;12.13;3.60;;;;;;;13.58;84.30;101115.84;5070029;28;20282;-81
2023/04/25 06:48:47;;;;;;;9.68;2.95;;;;;;;14.02;77.28;101109.25;5107643;28;20065;-81
2023/04/25 06:51:13;;;;;;;8.67;3.40;;;;;;;14.30;76.90;101115.84;5098137;28;20142;-81
2023/04/25 06:53:39;;;;;;;7.82;3.08;;;;;;;14.95;72.08;101111.19;5105058;28;20270;-80
2023/04/25 06:56:04;;;;;;;9.82;2.80;;;;;;;15.12;68.75;101106.75;5104567;28;20036;-81
2023/04/25 06:58:30;;;;;;;6.32;2.83;;;;;;;15.63;71.59;101110.50;5096332;28;20043;-80
2023/04/25 07:00:55;;;;;;;7.47;2.83;;;;;;;15.86;64.66;101125.72;5101224;28;20105;-81
2023/04/25 07:03:21;;;;;;;7.05;2.78;;;;;;;16.31;67.28;101117.63;5102150;28;20054;-81
2023/04/25 07:05:46;;;;;;;9.93;3.03;;;;;;;17.23;64.36;101127.88;5102040;28;20097;-78
2023/04/25 07:08:12;;;;;;;9.00;3.13;;;;;;;18.20;64.37;101121.63;5087880;28;20036;-78
2023/04/25 07:10:37;;;;;;;8.68;2.65;;;;;;;18.29;53.78;101113.06;5101139;28;20294;-78
2023/04/25 07:13:03;;;;;;;6.75;2.97;;;;;;;17.44;55.36;101128.97;5105522;28;20036;-78
2023/04/25 07:15:28;;;;;;;11.38;3.10;;;;;;;17.43;56.86;101131.91;5107343;28;20058;-79
2023/04/25 07:17:53;;;;;;;7.43;2.30;;;;;;;17.51;57.91;101126.06;5101006;28;20039;-79
2023/04/25 07:20:18;;;;;;;10.05;2.67;;;;;;;18.29;56.37;101126.59;5106656;28;20040;-78
2023/04/25 07:22:44;;;;;;;7.33;2.63;;;;;;;19.03;56.20;101138.22;5105635;28;20194;-79
2023/04/25 07:25:09;;;;;;;8.13;2.10;;;;;;;18.95;51.67;101136.03;5104695;28;20728;-78
2023/04/25 07:27:35;;;;;;;9.30;2.90;;;;;;;18.13;54.86;101139.16;5088053;28;20345;-78
2023/04/25 07:30:00;;;;;;;5.75;2.20;;;;;;;18.22;51.88;101164.72;5097711;28;20101;-78
2023/04/25 07:32:26;;;;;;;9.30;3.08;;;;;;;19.11;52.85;101148.59;5103740;28;20031;-80
2023/04/25 07:34:51;;;;;;;7.20;2.65;;;;;;;19.85;47.55;101155.69;5081007;28;20024;-80
2023/04/25 07:37:18;;;;;;;7.47;2.88;;;;;;;20.20;44.79;101162.25;5099517;28;20560;-80
2023/04/25 07:39:45;;;;;;;7.82;2.40;;;;;;;20.51;43.44;101163.91;5085601;28;20174;-80
2023/04/25 07:42:11;;;;;;;5.10;2.30;;;;;;;20.79;43.16;101164.44;5087636;28;20058;-79
2023/04/25 07:47:58;;;;;;;6.40;2.28;;;;;;;21.00;41.71;101175.00;5106554;28;20046;-80
2023/04/25 07:50:23;;;;;;;4.90;2.38;;;;;;;21.21;40.44;101189.38;5096427;28;20039;-79
2023/04/25 07:52:49;;;;;;;10.00;2.85;;;;;;;21.11;39.61;101178.53;5106091;28;20047;-81
2023/04/25 07:55:14;;;;;;;6.10;2.50;;;;;;;19.93;41.46;101168.72;5101813;28;20036;-80
2023/04/25 07:57:40;;;;;;;10.10;2.83;;;;;;;17.49;43.85;101171.47;5101183;28;20048;-81
2023/04/25 08:03:27;;;;;;;6.95;2.60;;;;;;;15.62;51.72;101178.94;5103876;28;20043;-81
2023/04/25 08:05:52;;;;;;;8.50;3.43;;;;;;;15.45;54.35;101186.09;5087556;28;20024;-80
2023/04/25 08:08:17;;;;;;;8.55;2.92;;;;;;;15.77;54.71;101181.94;5081479;28;20290;-80
2023/04/25 08:10:43;;;;;;;6.37;2.20;;;;;;;15.59;52.20;101194.75;5099879;28;20032;-80
2023/04/25 08:13:08;;;;;;;7.57;2.40;;;;;;;15.04;54.97;101192.47;5100734;28;20345;-80
2023/04/25 08:15:34;;;;;;;9.15;2.53;;;;;;;14.30;58.25;101202.75;5094876;28;20070;-79
2023/04/25 08:18:00;;;;;;;9.38;3.83;;;;;;;13.86;59.65;101202.09;5080729;28;20020;-80
2023/04/25 08:20:25;;;;;;;6.82;2.38;;;;;;;13.66;60.38;101187.31;5095149;28;20598;-79
2023/04/25 08:22:50;;;;;;;9.02;2.88;;;;;;;13.89;61.26;101201.69;5098967;28;20468;-80
2023/04/25 08:25:16;;;;;;;9.43;2.70;;;;;;;13.92;61.20;101205.78;5082574;28;20035;-80
2023/04/25 08:27:41;;;;;;;12.57;3.00;;;;;;;13.51;61.23;101203.78;5077947;28;20862;-80
2023/04/25 08:30:08;;;;;;;10.85;2.83;;;;;;;13.74;63.72;101209.31;5077364;28;20024;-78
2023/04/25 08:32:34;;;;;;;11.23;2.92;;;;;;;13.83;61.09;101223.25;5074574;28;20032;-78
2023/04/25 08:34:59;;;;;;;9.27;2.95;;;;;;;13.67;62.92;101223.88;5098327;28;20377;-80
2023/04/25 08:40:50;;;;;;;10.05;3.10;;;;;;;14.26;63.27;101220.41;5096138;28;20155;-80
2023/04/25 08:43:18;;;;;;;10.75;3.58;;;;;;;14.39;61.97;101228.28;5085022;28;20447;-80
2023/04/25 08:45:44;;;;;;;7.03;2.95;;;;;;;14.13;60.39;101197.19;5079851;28;20125;-80
2023/04/25 08:48:15;;;;;;;6.50;2.45;;;;;;;14.37;63.25;101232.25;5066242;28;20125;-79
2023/04/25 08:50:53;;;;;;;7.03;2.28;;;;;;;15.36;61.29;101238.72;5106066;28;20032;-80
2023/04/25 08:53:24;;;;;;;9.85;2.50;;;;;;;15.22;59.74;101237.31;5083170;28;20033;-80
2023/04/25 08:55:50;;;;;;;10.43;2.78;;;;;;;15.77;61.73;101243.13;5080819;28;20039;-78
2023/04/25 08:58:17;;;;;;;7.28;2.58;;;;;;;15.76;55.84;101255.78;5093581;28;20052;-79
2023/04/25 09:00:43;;;;;;;11.18;3.08;;;;;;;16.40;52.75;101266.47;5077236;28;20039;-78
2023/04/25 09:03:08;;;;;;;8.23;2.40;;;;;;;17.14;52.72;101269.09;5095986;28;20032;-79
2023/04/25 09:05:37;;;;;;;7.15;2.13;;;;;;;17.86;49.53;101269.03;5093369;28;20119;-79
2023/04/25 09:08:03;;;;;;;13.23;2.28;;;;;;;17.51;48.53;101281.00;5096558;28;20103;-79
2023/04/25 09:10:28;;;;;;;8.63;2.22;;;;;;;17.61;50.83;101272.19;5072634;28;20395;-79
2023/04/25 09:16:21;;;;;;;9.05;2.25;;;;;;;19.95;44.39;101286.03;5094810;28;20277;-78
2023/04/25 09:18:47;;;;;;;11.57;2.50;;;;;;;20.52;42.39;101295.97;5076612;28;20048;-78
2023/04/25 09:21:14;;;;;;;9.30;2.30;;;;;;;19.76;39.00;101293.81;5078440;28;20073;-77
2023/04/25 09:27:12;;;;;;;5.22;2.47;;;;;;;17.61;47.24;101294.66;5095265;28;20116;-78
2023/04/25 09:29:40;;;;;;;10.27;2.60;;;;;;;17.95;44.11;101300.03;5056054;28;20492;-77
2023/04/25 09:32:20;;;;;;;8.30;2.40;;;;;;;17.80;46.98;101287.09;5076490;28;20036;-77
2023/04/25 09:34:51;;;;;;;5.40;2.05;;;;;;;17.52;45.05;101287.22;5071854;28;20114;-76
2023/04/25 09:37:20;;;;;;;7.40;2.80;;;;;;;17.52;49.89;101296.16;5076588;28;20036;-77
2023/04/25 09:39:49;;;;;;;9.52;2.50;;;;;;;17.35;45.83;101295.38;5077276;28;20127;-77
2023/04/25 09:42:17;;;;;;;8.05;2.58;;;;;;;17.29;46.48;101296.34;5072768;28;20043;-77
2023/04/25 09:44:45;;;;;;;6.97;2.72;;;;;;;16.09;49.85;101303.66;5076034;28;20028;-76
2023/04/25 09:50:32;;;;;;;4.95;2.03;;;;;;;15.95;47.65;101317.66;5091813;28;20071;-78
2023/04/25 09:56:19;;;;;;;6.45;2.10;;;;;;;16.22;46.84;101313.38;5093920;28;20295;-77
2023/04/25 10:05:59;;;;;;;4.60;1.90;;;;;;;16.67;45.73;101315.31;5093608;28;20047;-78
2023/04/25 10:08:28;;;;;;;7.57;2.00;;;;;;;16.51;46.15;101321.50;5075325;28;20024;-78
2023/04/25 10:14:16;;;;;;;4.40;1.80;;;;;;;17.81;43.71;101307.69;5093863;28;20039;-75
2023/04/25 10:16:41;;;;;;;5.13;1.95;;;;;;;18.05;45.30;101319.09;5074542;28;20115;-75
2023/04/25 10:26:13;;;;;;;6.07;1.90;;;;;;;17.65;42.28;101317.47;5093397;28;20062;-76
2023/04/25 10:32:00;;;;;;;4.10;1.70;;;;;;;16.82;40.72;101302.09;5093261;28;20426;-76
2023/04/25 10:34:48;;;;;;;10.35;1.95;;;;;;;15.90;43.61;101315.69;5092766;28;20111;-76
2023/04/25 10:37:13;;;;;;;5.18;2.42;;;;;;;15.14;47.42;101309.34;5070193;28;20035;-76
2023/04/25 10:39:41;;;;;;;6.47;3.00;;;;;;;15.48;48.78;101323.88;5092842;28;20365;-76
2023/04/25 10:42:07;;;;;;;5.55;1.98;;;;;;;15.56;44.49;101327.28;5088081;28;20119;-76
2023/04/25 10:44:33;;;;;;;4.90;2.03;;;;;;;15.04;48.08;101321.75;5074445;28;20695;-76
2023/04/25 10:47:00;;;;;;;6.53;2.30;;;;;;;14.67;50.91;101329.94;5092698;28;20099;-76
2023/04/25 10:49:37;;;;;;;5.93;2.17;;;;;;;14.34;50.86;101330.38;5088105;28;20527;-75
2023/04/25 10:52:24;;;;;;;7.47;2.50;;;;;;;13.61;51.11;101328.53;5092585;28;20028;-76
2023/04/25 10:54:58;;;;;;;6.55;2.05;;;;;;;12.81;55.38;101324.00;5088089;28;20137;-75
2023/04/25 10:57:38;;;;;;;7.20;2.22;;;;;;;12.58;56.61;101328.06;5092608;28;20051;-75
2023/04/25 11:00:03;;;;;;;7.55;2.08;;;;;;;12.36;57.41;101329.41;5074405;28;20480;-75
2023/04/25 11:02:29;;;;;;;9.57;2.20;;;;;;;12.32;58.96;101334.38;5087887;28;20101;-75
2023/04/25 11:04:54;;;;;;;5.45;2.53;;;;;;;12.37;61.58;101336.41;5092460;28;20105;-75
2023/04/25 11:07:30;;;;;;;4.70;2.30;;;;;;;12.58;61.75;101330.75;5087845;28;20401;-75
2023/04/25 11:09:55;;;;;;;6.53;2.05;;;;;;;12.76;60.54;101339.94;5092447;28;20028;-75
2023/04/25 11:12:21;;;;;;;6.18;2.10;;;;;;;12.27;63.24;101344.91;5092600;28;20028;-75
2023/04/25 11:14:46;;;;;;;5.85;2.00;;;;;;;11.72;65.99;101347.13;5069897;28;20085;-75
2023/04/25 11:17:11;;;;;;;6.90;3.03;;;;;;;11.21;70.90;101341.59;5092381;28;20035;-75
2023/04/25 11:19:36;;;;;;;4.77;2.10;;;;;;;10.79;71.57;101354.31;5069932;28;20282;-75
2023/04/25 11:22:03;;;;;;;6.77;1.93;;;;;;;10.72;73.62;101361.50;5093140;28;20384;-75
2023/04/25 11:24:32;;;;;;;8.52;2.05;;;;;;;10.89;70.36;101364.63;5095763;28;20281;-75
2023/04/25 11:26:59;;;;;;;6.10;2.08;;;;;;;11.05;68.36;101356.22;5091079;28;20078;-76
2023/04/25 11:29:29;;;;;;;8.07;2.00;;;;;;;11.28;65.67;101365.72;5077525;28;20123;-75
2023/04/25 11:31:57;;;;;;;4.15;2.05;;;;;;;11.57;65.12;101353.75;5073948;28;20070;-74
2023/04/25 11:37:44;;;;;;;4.35;1.83;;;;;;;11.98;62.19;101364.19;5095869;28;20102;-74
2023/04/25 11:40:11;;;;;;;6.18;2.00;;;;;;;12.24;60.12;101364.13;5073168;28;20036;-75
2023/04/25 11:42:43;;;;;;;4.22;2.13;;;;;;;12.59;61.05;101367.25;5095701;28;20086;-75
2023/04/25 11:45:09;;;;;;;5.65;1.77;;;;;;;13.30;58.77;101367.03;5073124;28;20131;-75
2023/04/25 11:47:35;;;;;;;4.65;2.72;;;;;;;13.57;56.77;101358.72;5095740;28;20427;-75
2023/04/25 11:50:02;;;;;;;5.85;1.70;;;;;;;13.74;55.38;101359.00;5095561;28;20027;-75
2023/04/25 11:52:42;;;;;;;6.70;2.30;;;;;;;14.16;58.02;101363.47;5090808;28;20040;-75
2023/04/25 11:55:19;;;;;;;5.75;2.17;;;;;;;15.12;54.17;101362.63;5095543;28;20039;-75
2023/04/25 11:57:49;;;;;;;5.68;1.70;;;;;;;15.13;49.15;101356.19;5090775;28;20149;-75
2023/04/25 12:00:17;;;;;;;3.30;1.33;;;;;;;15.18;50.17;101367.09;5077366;28;20122;-75
2023/04/25 12:02:53;;;;;;;7.30;1.65;;;;;;;14.64;50.57;101364.59;5076694;28;20028;-74
2023/04/25 12:05:19;;;;;;;7.47;1.88;;;;;;;14.13;51.52;101368.50;5093087;28;20031;-75
2023/04/25 12:07:45;;;;;;;6.72;2.40;;;;;;;14.00;51.08;101368.66;5095255;28;20035;-75
2023/04/25 12:10:12;;;;;;;4.75;2.08;;;;;;;14.49;53.27;101363.13;5090827;28;20040;-74
2023/04/25 12:12:41;;;;;;;3.85;1.63;;;;;;;14.36;52.78;101365.13;5077275;28;20073;-74
2023/04/25 12:15:19;;;;;;;7.55;1.95;;;;;;;13.80;53.70;101371.53;5076821;28;20024;-74
2023/04/25 12:17:49;;;;;;;4.72;2.42;;;;;;;13.86;52.08;101367.97;5092842;28;20043;-74
2023/04/25 12:20:17;;;;;;;3.95;1.50;;;;;;;15.02;49.89;101369.63;5094918;28;20440;-75
2023/04/25 12:22:44;;;;;;;3.95;1.42;;;;;;;16.58;43.33;101368.06;5072431;28;20083;-74
2023/04/25 12:25:11;;;;;;;4.22;1.67;;;;;;;17.83;38.95;101378.59;5095275;28;20488;-74
2023/04/25 12:27:36;;;;;;;3.20;1.50;;;;;;;18.65;37.83;101387.78;5093897;28;20039;-74
2023/04/25 12:30:03;;;;;;;3.70;1.73;;;;;;;18.23;38.54;101382.94;5090878;28;20089;-74
2023/04/25 12:32:28;;;;;;;3.78;1.80;;;;;;;17.94;34.91;101391.22;5076097;28;20098;-74
2023/04/25 12:34:53;;;;;;;1.53;1.10;;;;;;;18.74;36.96;101386.25;5072141;28;20147;-74
2023/04/25 12:37:19;;;;;;;3.97;1.47;;;;;;;18.81;35.60;101395.00;5094684;28;20266;-74
2023/04/25 12:39:44;;;;;;;3.00;1.45;;;;;;;18.07;40.44;101384.59;5076504;28;20358;-74
2023/04/25 12:42:12;;;;;;;3.03;1.38;;;;;;;17.40;37.96;101381.16;5071981;28;20530;-74
2023/04/25 12:44:38;;;;;;;3.72;1.70;;;;;;;16.71;39.72;101389.38;5076525;28;20480;-74
2023/04/25 12:47:04;;;;;;;3.83;1.67;;;;;;;16.92;40.64;101385.19;5089977;28;20052;-74
2023/04/25 12:49:29;;;;;;;3.47;1.30;;;;;;;17.18;41.39;101397.28;5076324;28;20464;-74
2023/04/25 12:51:55;;;;;;;4.97;1.98;;;;;;;16.30;46.17;101402.06;5076408;28;20040;-74
2023/04/25 12:54:20;;;;;;;6.00;2.10;;;;;;;15.76;50.98;101412.19;5089757;28;20055;-74
2023/04/25 12:56:46;;;;;;;7.93;2.38;;;;;;;14.99;53.99;101405.91;5094596;28;20024;-74
2023/04/25 12:59:11;;;;;;;7.25;3.20;;;;;;;14.59;56.40;101407.50;5089687;28;20039;-74
2023/04/25 13:01:37;;;;;;;6.68;2.15;;;;;;;14.16;60.17;101409.22;5094245;28;20068;-74
2023/04/25 13:04:02;;;;;;;6.03;2.10;;;;;;;13.74;55.60;101405.50;5094278;28;20456;-74
2023/04/25 13:06:27;;;;;;;6.68;2.10;;;;;;;13.22;58.98;101412.94;5089760;28;20040;-74
2023/04/25 13:08:52;;;;;;;4.30;1.73;;;;;;;12.89;57.32;101410.44;5094132;28;20042;-73
2023/04/25 13:11:18;;;;;;;7.90;2.00;;;;;;;13.33;59.06;101412.28;5071272;28;20090;-74